EJU62AB EGPF-EHAM
Flight info
| Callsign | EJU62AB |
|---|---|
| Flight time | 1h 11m |
| Altitude | 37000 |
| Route | NORBO Y96 HAVEN DCT ERKIT N110 DOLAS L603 LAMSO |
| Aircraft | A320/M-SDE2E3FGHIJ1RWXYZ/LB1 |
Departure
| Time | 2026-05-07 12:00 |
|---|---|
| Airport | Glasgow Airport (EGPF) |
Arrival
| Time | 2026-05-07 13:11 |
|---|---|
| Airport | Amsterdam Airport Schiphol (EHAM) |
| Time | Latitude | Longitude | Altitude | Speed | Heading |
|---|---|---|---|---|---|
| 2026-05-07 11:22 | 55.86426 | -4.43737 | 29 ft | 0 kts | 62° |
| 2026-05-07 11:47 | 55.86424 | -4.43742 | 29 ft | 3 kts | 62° |
| 2026-05-07 11:47 | 55.86412 | -4.43784 | 29 ft | 4 kts | 63° |
| 2026-05-07 11:48 | 55.86399 | -4.43826 | 29 ft | 4 kts | 58° |
| 2026-05-07 11:48 | 55.86383 | -4.43862 | 29 ft | 4 kts | 27° |
| 2026-05-07 11:48 | 55.86372 | -4.43869 | 29 ft | 0 kts | 356° |
| 2026-05-07 11:51 | 55.86373 | -4.43869 | 29 ft | 1 kts | 356° |
| 2026-05-07 11:51 | 55.86387 | -4.43877 | 29 ft | 3 kts | 337° |
| 2026-05-07 11:52 | 55.86423 | -4.43910 | 29 ft | 8 kts | 332° |
| 2026-05-07 11:52 | 55.86485 | -4.43971 | 29 ft | 11 kts | 331° |
| 2026-05-07 11:52 | 55.86547 | -4.44030 | 29 ft | 9 kts | 334° |
| 2026-05-07 11:52 | 55.86601 | -4.44005 | 29 ft | 8 kts | 46° |
| 2026-05-07 11:53 | 55.86643 | -4.43926 | 29 ft | 10 kts | 46° |
| 2026-05-07 11:53 | 55.86692 | -4.43832 | 29 ft | 11 kts | 46° |
| 2026-05-07 11:53 | 55.86726 | -4.43762 | 29 ft | 12 kts | 58° |
| 2026-05-07 11:53 | 55.86755 | -4.43600 | 29 ft | 16 kts | 73° |
| 2026-05-07 11:54 | 55.86790 | -4.43386 | 29 ft | 20 kts | 74° |
| 2026-05-07 11:54 | 55.86830 | -4.43135 | 29 ft | 22 kts | 74° |
| 2026-05-07 11:54 | 55.86880 | -4.42958 | 29 ft | 13 kts | 37° |
| 2026-05-07 11:54 | 55.86983 | -4.42864 | 29 ft | 19 kts | 26° |
| 2026-05-07 11:55 | 55.87104 | -4.42784 | 29 ft | 18 kts | 20° |
| 2026-05-07 11:55 | 55.87215 | -4.42706 | 29 ft | 16 kts | 22° |
| 2026-05-07 11:55 | 55.87317 | -4.42640 | 29 ft | 15 kts | 20° |
| 2026-05-07 11:55 | 55.87405 | -4.42561 | 29 ft | 14 kts | 42° |
| 2026-05-07 11:56 | 55.87467 | -4.42446 | 29 ft | 14 kts | 46° |
| 2026-05-07 11:56 | 55.87538 | -4.42313 | 29 ft | 15 kts | 46° |
| 2026-05-07 11:56 | 55.87607 | -4.42184 | 29 ft | 16 kts | 46° |
| 2026-05-07 11:56 | 55.87694 | -4.42021 | 29 ft | 19 kts | 46° |
| 2026-05-07 11:57 | 55.87777 | -4.41881 | 29 ft | 14 kts | 32° |
| 2026-05-07 11:57 | 55.87844 | -4.41850 | 29 ft | 0 kts | 0° |
| 2026-05-07 11:58 | 55.87868 | -4.41852 | 29 ft | 7 kts | 354° |
| 2026-05-07 11:58 | 55.87921 | -4.41912 | 29 ft | 9 kts | 297° |
| 2026-05-07 11:58 | 55.87904 | -4.42004 | 29 ft | 4 kts | 227° |
| 2026-05-07 11:58 | 55.87902 | -4.42006 | 29 ft | 0 kts | 227° |
| 2026-05-07 11:59 | 55.87902 | -4.42008 | 29 ft | 0 kts | 227° |
| 2026-05-07 11:59 | 55.87869 | -4.42070 | 29 ft | 33 kts | 226° |
| 2026-05-07 11:59 | 55.87537 | -4.42686 | 29 ft | 101 kts | 226° |
| 2026-05-07 11:59 | 55.86918 | -4.43829 | 86 ft | 147 kts | 226° |
| 2026-05-07 12:00 | 55.86235 | -4.45152 | 755 ft | 144 kts | 222° |
| 2026-05-07 12:00 | 55.85533 | -4.46422 | 1462 ft | 147 kts | 222° |
| 2026-05-07 12:00 | 55.84756 | -4.47793 | 1846 ft | 168 kts | 222° |
| 2026-05-07 12:00 | 55.83863 | -4.49365 | 2179 ft | 193 kts | 223° |
| 2026-05-07 12:01 | 55.82846 | -4.51158 | 2641 ft | 217 kts | 223° |
| 2026-05-07 12:01 | 55.81740 | -4.53112 | 3287 ft | 234 kts | 224° |
| 2026-05-07 12:01 | 55.80572 | -4.55180 | 4254 ft | 239 kts | 224° |
| 2026-05-07 12:01 | 55.79386 | -4.57279 | 5212 ft | 242 kts | 224° |
| 2026-05-07 12:02 | 55.78183 | -4.59410 | 6155 ft | 245 kts | 224° |
| 2026-05-07 12:02 | 55.76969 | -4.61554 | 7078 ft | 247 kts | 224° |
| 2026-05-07 12:02 | 55.75736 | -4.63726 | 7990 ft | 251 kts | 224° |
| 2026-05-07 12:02 | 55.74485 | -4.65926 | 8897 ft | 255 kts | 224° |
| 2026-05-07 12:03 | 55.73210 | -4.68164 | 9761 ft | 260 kts | 224° |
| 2026-05-07 12:03 | 55.71900 | -4.70456 | 10309 ft | 274 kts | 224° |
| 2026-05-07 12:03 | 55.70471 | -4.72904 | 10623 ft | 295 kts | 223° |
| 2026-05-07 12:03 | 55.68768 | -4.75001 | 11240 ft | 304 kts | 203° |
| 2026-05-07 12:04 | 55.66679 | -4.75774 | 11959 ft | 312 kts | 185° |
| 2026-05-07 12:04 | 55.64844 | -4.75869 | 12597 ft | 317 kts | 180° |
| 2026-05-07 12:05 | 55.63119 | -4.75308 | 13008 ft | 330 kts | 162° |
| 2026-05-07 12:05 | 55.61094 | -4.73307 | 13794 ft | 339 kts | 144° |
| 2026-05-07 12:05 | 55.59655 | -4.70375 | 14404 ft | 351 kts | 123° |
| 2026-05-07 12:05 | 55.58906 | -4.66219 | 15056 ft | 363 kts | 101° |
| 2026-05-07 12:06 | 55.58608 | -4.61762 | 15716 ft | 367 kts | 99° |
| 2026-05-07 12:06 | 55.58337 | -4.57256 | 16368 ft | 370 kts | 98° |
| 2026-05-07 12:06 | 55.58069 | -4.52712 | 17026 ft | 374 kts | 98° |
| 2026-05-07 12:06 | 55.57793 | -4.48119 | 17698 ft | 377 kts | 99° |
| 2026-05-07 12:07 | 55.57503 | -4.43484 | 18313 ft | 381 kts | 99° |
| 2026-05-07 12:07 | 55.57199 | -4.38806 | 18860 ft | 385 kts | 99° |
| 2026-05-07 12:07 | 55.56886 | -4.34093 | 19423 ft | 388 kts | 99° |
| 2026-05-07 12:07 | 55.56568 | -4.29348 | 20004 ft | 390 kts | 99° |
| 2026-05-07 12:08 | 55.56248 | -4.24583 | 20596 ft | 392 kts | 99° |
| 2026-05-07 12:08 | 55.55924 | -4.19774 | 21178 ft | 395 kts | 100° |
| 2026-05-07 12:08 | 55.55597 | -4.14942 | 21750 ft | 397 kts | 100° |
| 2026-05-07 12:08 | 55.55265 | -4.10079 | 22327 ft | 400 kts | 100° |
| 2026-05-07 12:09 | 55.54931 | -4.05186 | 22887 ft | 403 kts | 100° |
| 2026-05-07 12:09 | 55.54594 | -4.00266 | 23458 ft | 405 kts | 100° |
| 2026-05-07 12:09 | 55.54249 | -3.95307 | 23928 ft | 408 kts | 100° |
| 2026-05-07 12:09 | 55.53901 | -3.90325 | 24376 ft | 411 kts | 100° |
| 2026-05-07 12:10 | 55.53547 | -3.85296 | 24778 ft | 414 kts | 100° |
| 2026-05-07 12:10 | 55.53189 | -3.80240 | 25191 ft | 417 kts | 100° |
| 2026-05-07 12:10 | 55.52826 | -3.75151 | 25601 ft | 420 kts | 100° |
| 2026-05-07 12:10 | 55.52458 | -3.70015 | 25996 ft | 423 kts | 100° |
| 2026-05-07 12:11 | 55.52089 | -3.64862 | 26402 ft | 425 kts | 100° |
| 2026-05-07 12:11 | 55.51715 | -3.59664 | 26785 ft | 428 kts | 100° |
| 2026-05-07 12:11 | 55.51334 | -3.54447 | 27165 ft | 431 kts | 100° |
| 2026-05-07 12:11 | 55.50947 | -3.49186 | 27543 ft | 433 kts | 100° |
| 2026-05-07 12:12 | 55.50554 | -3.43899 | 27907 ft | 436 kts | 100° |
| 2026-05-07 12:12 | 55.50155 | -3.38587 | 28268 ft | 438 kts | 100° |
| 2026-05-07 12:12 | 55.49741 | -3.33238 | 28614 ft | 441 kts | 101° |
| 2026-05-07 12:12 | 55.49252 | -3.27898 | 28948 ft | 443 kts | 102° |
| 2026-05-07 12:13 | 55.48691 | -3.22536 | 29276 ft | 445 kts | 103° |
| 2026-05-07 12:13 | 55.48088 | -3.17175 | 29594 ft | 447 kts | 104° |
| 2026-05-07 12:13 | 55.47466 | -3.11797 | 29954 ft | 448 kts | 104° |
| 2026-05-07 12:13 | 55.46667 | -3.06493 | 30241 ft | 448 kts | 112° |
| 2026-05-07 12:14 | 55.45425 | -3.01475 | 30520 ft | 446 kts | 121° |
| 2026-05-07 12:14 | 55.43781 | -2.96870 | 30795 ft | 443 kts | 130° |
| 2026-05-07 12:14 | 55.41770 | -2.92788 | 31069 ft | 441 kts | 139° |
| 2026-05-07 12:14 | 55.39510 | -2.89148 | 31334 ft | 441 kts | 141° |
| 2026-05-07 12:15 | 55.37224 | -2.85538 | 31646 ft | 440 kts | 141° |
| 2026-05-07 12:15 | 55.34947 | -2.81952 | 32034 ft | 439 kts | 141° |
| 2026-05-07 12:15 | 55.32679 | -2.78383 | 32418 ft | 437 kts | 141° |
| 2026-05-07 12:15 | 55.30422 | -2.74826 | 32783 ft | 435 kts | 141° |
| 2026-05-07 12:16 | 55.28168 | -2.71282 | 33124 ft | 435 kts | 141° |
| 2026-05-07 12:16 | 55.25916 | -2.67751 | 33484 ft | 434 kts | 141° |
| 2026-05-07 12:16 | 55.23672 | -2.64238 | 33853 ft | 432 kts | 141° |
| 2026-05-07 12:16 | 55.21435 | -2.60738 | 34209 ft | 430 kts | 140° |
| 2026-05-07 12:17 | 55.19208 | -2.57254 | 34517 ft | 429 kts | 140° |
| 2026-05-07 12:17 | 55.16981 | -2.53781 | 34775 ft | 429 kts | 141° |
| 2026-05-07 12:17 | 55.14751 | -2.50311 | 35018 ft | 429 kts | 141° |
| 2026-05-07 12:17 | 55.12523 | -2.46850 | 35231 ft | 429 kts | 141° |
| 2026-05-07 12:18 | 55.10289 | -2.43386 | 35455 ft | 430 kts | 141° |
| 2026-05-07 12:18 | 55.08051 | -2.39915 | 35679 ft | 430 kts | 141° |
| 2026-05-07 12:18 | 55.05812 | -2.36445 | 35893 ft | 431 kts | 141° |
| 2026-05-07 12:18 | 55.03574 | -2.32980 | 36100 ft | 431 kts | 141° |
| 2026-05-07 12:19 | 55.01329 | -2.29513 | 36306 ft | 431 kts | 141° |
| 2026-05-07 12:19 | 54.99078 | -2.26048 | 36517 ft | 432 kts | 141° |
| 2026-05-07 12:19 | 54.96827 | -2.22594 | 36729 ft | 431 kts | 141° |
| 2026-05-07 12:19 | 54.94574 | -2.19149 | 36940 ft | 431 kts | 141° |
| 2026-05-07 12:20 | 54.92320 | -2.15710 | 37011 ft | 430 kts | 141° |
| 2026-05-07 12:20 | 54.87832 | -2.08857 | 37014 ft | 429 kts | 141° |
| 2026-05-07 12:21 | 54.83350 | -2.02015 | 37020 ft | 429 kts | 141° |
| 2026-05-07 12:21 | 54.78870 | -1.95194 | 37021 ft | 429 kts | 141° |
| 2026-05-07 12:22 | 54.74380 | -1.88393 | 37027 ft | 429 kts | 141° |
| 2026-05-07 12:22 | 54.69887 | -1.81607 | 37031 ft | 428 kts | 141° |
| 2026-05-07 12:23 | 54.65394 | -1.74838 | 37038 ft | 428 kts | 141° |
| 2026-05-07 12:23 | 54.60898 | -1.68100 | 37047 ft | 428 kts | 141° |
| 2026-05-07 12:24 | 54.56400 | -1.61375 | 37050 ft | 428 kts | 141° |
| 2026-05-07 12:24 | 54.51905 | -1.54667 | 37044 ft | 427 kts | 141° |
| 2026-05-07 12:25 | 54.47409 | -1.47975 | 37044 ft | 427 kts | 141° |
| 2026-05-07 12:25 | 54.42913 | -1.41315 | 37053 ft | 426 kts | 141° |
| 2026-05-07 12:26 | 54.38421 | -1.34680 | 37055 ft | 426 kts | 141° |
| 2026-05-07 12:26 | 54.33927 | -1.28045 | 37071 ft | 426 kts | 141° |
| 2026-05-07 12:27 | 54.29437 | -1.21424 | 37075 ft | 426 kts | 141° |
| 2026-05-07 12:27 | 54.24929 | -1.14833 | 37069 ft | 426 kts | 141° |
| 2026-05-07 12:28 | 54.20421 | -1.08256 | 37063 ft | 426 kts | 141° |
| 2026-05-07 12:28 | 54.15907 | -1.01688 | 37058 ft | 426 kts | 141° |
| 2026-05-07 12:29 | 54.11402 | -0.95156 | 37059 ft | 426 kts | 141° |
| 2026-05-07 12:29 | 54.06883 | -0.88608 | 37059 ft | 426 kts | 141° |
| 2026-05-07 12:30 | 54.02315 | -0.82190 | 37069 ft | 425 kts | 146° |
| 2026-05-07 12:30 | 53.97449 | -0.76466 | 37066 ft | 425 kts | 146° |
| 2026-05-07 12:31 | 53.92583 | -0.70771 | 37072 ft | 425 kts | 146° |
| 2026-05-07 12:31 | 53.87717 | -0.65091 | 37073 ft | 424 kts | 146° |
| 2026-05-07 12:32 | 53.82857 | -0.59414 | 37079 ft | 424 kts | 146° |
| 2026-05-07 12:32 | 53.77996 | -0.53766 | 37079 ft | 424 kts | 146° |
| 2026-05-07 12:33 | 53.71516 | -0.46276 | 37074 ft | 424 kts | 146° |
| 2026-05-07 12:33 | 53.65830 | -0.39717 | 37075 ft | 424 kts | 146° |
| 2026-05-07 12:34 | 53.61786 | -0.35065 | 37075 ft | 423 kts | 146° |
| 2026-05-07 12:34 | 53.57177 | -0.28923 | 37074 ft | 424 kts | 133° |
| 2026-05-07 12:35 | 53.53565 | -0.21094 | 37070 ft | 424 kts | 127° |
| 2026-05-07 12:35 | 53.50008 | -0.13165 | 37065 ft | 425 kts | 128° |
| 2026-05-07 12:36 | 53.46440 | -0.05278 | 37066 ft | 425 kts | 128° |
| 2026-05-07 12:36 | 53.42862 | 0.02617 | 37054 ft | 425 kts | 128° |
| 2026-05-07 12:37 | 53.39283 | 0.10520 | 37055 ft | 425 kts | 128° |
| 2026-05-07 12:37 | 53.35698 | 0.18414 | 37057 ft | 426 kts | 128° |
| 2026-05-07 12:38 | 53.32107 | 0.26289 | 37067 ft | 425 kts | 128° |
| 2026-05-07 12:38 | 53.28511 | 0.34139 | 37068 ft | 425 kts | 128° |
| 2026-05-07 12:39 | 53.24905 | 0.41980 | 37074 ft | 425 kts | 128° |
| 2026-05-07 12:39 | 53.21507 | 0.49354 | 37073 ft | 426 kts | 128° |
| 2026-05-07 12:40 | 53.17895 | 0.57170 | 37072 ft | 426 kts | 128° |
| 2026-05-07 12:40 | 53.14293 | 0.64932 | 37080 ft | 426 kts | 128° |
| 2026-05-07 12:41 | 53.10663 | 0.72734 | 37077 ft | 426 kts | 128° |
| 2026-05-07 12:41 | 53.07032 | 0.80530 | 37079 ft | 426 kts | 128° |
| 2026-05-07 12:42 | 53.03400 | 0.88311 | 37083 ft | 426 kts | 128° |
| 2026-05-07 12:42 | 52.99788 | 0.96123 | 37083 ft | 426 kts | 124° |
| 2026-05-07 12:43 | 52.97330 | 1.05034 | 37087 ft | 427 kts | 105° |
| 2026-05-07 12:43 | 52.96196 | 1.14719 | 37089 ft | 428 kts | 101° |
| 2026-05-07 12:44 | 52.95075 | 1.24414 | 37089 ft | 428 kts | 102° |
| 2026-05-07 12:44 | 52.93930 | 1.34102 | 37089 ft | 428 kts | 102° |
| 2026-05-07 12:45 | 52.92785 | 1.43793 | 37094 ft | 428 kts | 102° |
| 2026-05-07 12:45 | 52.91640 | 1.53476 | 37093 ft | 428 kts | 102° |
| 2026-05-07 12:46 | 52.90485 | 1.63163 | 37098 ft | 429 kts | 102° |
| 2026-05-07 12:46 | 52.89320 | 1.72853 | 37093 ft | 430 kts | 102° |
| 2026-05-07 12:47 | 52.88739 | 1.77651 | 36596 ft | 433 kts | 102° |
| 2026-05-07 12:47 | 52.88128 | 1.82668 | 35393 ft | 444 kts | 101° |
| 2026-05-07 12:47 | 52.87530 | 1.87573 | 34882 ft | 437 kts | 101° |
| 2026-05-07 12:47 | 52.86932 | 1.92478 | 34356 ft | 432 kts | 101° |
| 2026-05-07 12:48 | 52.86347 | 1.97258 | 33917 ft | 424 kts | 101° |
| 2026-05-07 12:48 | 52.85763 | 2.01971 | 33282 ft | 411 kts | 101° |
| 2026-05-07 12:48 | 52.85192 | 2.06567 | 32811 ft | 405 kts | 101° |
| 2026-05-07 12:48 | 52.84630 | 2.11101 | 32319 ft | 400 kts | 101° |
| 2026-05-07 12:49 | 52.84072 | 2.15582 | 31841 ft | 396 kts | 101° |
| 2026-05-07 12:49 | 52.83519 | 2.20014 | 31379 ft | 392 kts | 101° |
| 2026-05-07 12:49 | 52.82968 | 2.24399 | 30918 ft | 388 kts | 101° |
| 2026-05-07 12:49 | 52.82423 | 2.28745 | 30475 ft | 384 kts | 101° |
| 2026-05-07 12:50 | 52.81883 | 2.33049 | 30006 ft | 380 kts | 101° |
| 2026-05-07 12:50 | 52.81347 | 2.37300 | 29562 ft | 376 kts | 101° |
| 2026-05-07 12:50 | 52.80815 | 2.41492 | 29148 ft | 371 kts | 101° |
| 2026-05-07 12:50 | 52.80284 | 2.45645 | 28751 ft | 366 kts | 101° |
| 2026-05-07 12:51 | 52.79761 | 2.49728 | 28362 ft | 361 kts | 101° |
| 2026-05-07 12:51 | 52.79244 | 2.53761 | 27975 ft | 357 kts | 101° |
| 2026-05-07 12:51 | 52.78731 | 2.57748 | 27583 ft | 352 kts | 102° |
| 2026-05-07 12:51 | 52.78225 | 2.61681 | 27198 ft | 348 kts | 102° |
| 2026-05-07 12:52 | 52.77723 | 2.65571 | 26806 ft | 344 kts | 102° |
| 2026-05-07 12:52 | 52.77225 | 2.69417 | 26414 ft | 341 kts | 102° |
| 2026-05-07 12:52 | 52.76730 | 2.73226 | 26028 ft | 338 kts | 102° |
| 2026-05-07 12:52 | 52.76239 | 2.77001 | 25620 ft | 335 kts | 102° |
| 2026-05-07 12:53 | 52.75748 | 2.80756 | 25213 ft | 333 kts | 102° |
| 2026-05-07 12:53 | 52.75262 | 2.84477 | 24813 ft | 331 kts | 103° |
| 2026-05-07 12:53 | 52.74776 | 2.88189 | 24399 ft | 330 kts | 103° |
| 2026-05-07 12:53 | 52.74288 | 2.91884 | 23986 ft | 329 kts | 103° |
| 2026-05-07 12:54 | 52.73799 | 2.95571 | 23545 ft | 329 kts | 103° |
| 2026-05-07 12:54 | 52.73192 | 2.99188 | 23096 ft | 326 kts | 112° |
| 2026-05-07 12:54 | 52.72203 | 3.02556 | 22780 ft | 334 kts | 121° |
| 2026-05-07 12:54 | 52.71017 | 3.05928 | 22443 ft | 344 kts | 121° |
| 2026-05-07 12:55 | 52.69815 | 3.09357 | 22106 ft | 345 kts | 121° |
| 2026-05-07 12:55 | 52.68615 | 3.12782 | 21769 ft | 345 kts | 121° |
| 2026-05-07 12:55 | 52.67418 | 3.16194 | 21433 ft | 343 kts | 121° |
| 2026-05-07 12:55 | 52.66228 | 3.19591 | 21101 ft | 342 kts | 121° |
| 2026-05-07 12:56 | 52.65040 | 3.22972 | 20769 ft | 340 kts | 121° |
| 2026-05-07 12:56 | 52.63854 | 3.26335 | 20438 ft | 339 kts | 121° |
| 2026-05-07 12:56 | 52.62672 | 3.29679 | 20113 ft | 337 kts | 121° |
| 2026-05-07 12:56 | 52.61493 | 3.33009 | 19773 ft | 336 kts | 121° |
| 2026-05-07 12:57 | 52.60318 | 3.36327 | 19447 ft | 335 kts | 121° |
| 2026-05-07 12:57 | 52.59168 | 3.39654 | 19114 ft | 334 kts | 117° |
| 2026-05-07 12:57 | 52.58358 | 3.43217 | 18788 ft | 333 kts | 104° |
| 2026-05-07 12:57 | 52.57933 | 3.46951 | 18471 ft | 332 kts | 100° |
| 2026-05-07 12:58 | 52.57545 | 3.50683 | 18114 ft | 331 kts | 100° |
| 2026-05-07 12:58 | 52.57151 | 3.54399 | 17783 ft | 330 kts | 100° |
| 2026-05-07 12:58 | 52.56753 | 3.58117 | 17467 ft | 328 kts | 100° |
| 2026-05-07 12:58 | 52.56359 | 3.61795 | 17149 ft | 326 kts | 100° |
| 2026-05-07 12:59 | 52.55967 | 3.65456 | 16829 ft | 325 kts | 100° |
| 2026-05-07 12:59 | 52.55574 | 3.69102 | 16522 ft | 323 kts | 100° |
| 2026-05-07 12:59 | 52.55183 | 3.72729 | 16197 ft | 321 kts | 100° |
| 2026-05-07 12:59 | 52.54787 | 3.76329 | 15882 ft | 319 kts | 103° |
| 2026-05-07 13:00 | 52.53954 | 3.79665 | 15569 ft | 316 kts | 126° |
| 2026-05-07 13:00 | 52.52580 | 3.82448 | 15246 ft | 313 kts | 132° |
| 2026-05-07 13:00 | 52.51138 | 3.85114 | 14904 ft | 311 kts | 132° |
| 2026-05-07 13:00 | 52.49694 | 3.87751 | 14572 ft | 310 kts | 132° |
| 2026-05-07 13:01 | 52.48253 | 3.90364 | 14247 ft | 308 kts | 133° |
| 2026-05-07 13:01 | 52.46820 | 3.92958 | 13915 ft | 307 kts | 132° |
| 2026-05-07 13:01 | 52.45390 | 3.95543 | 13558 ft | 305 kts | 133° |
| 2026-05-07 13:01 | 52.43970 | 3.98115 | 13173 ft | 303 kts | 133° |
| 2026-05-07 13:02 | 52.42564 | 4.00683 | 12799 ft | 302 kts | 133° |
| 2026-05-07 13:02 | 52.41165 | 4.03245 | 12447 ft | 300 kts | 133° |
| 2026-05-07 13:02 | 52.39776 | 4.05782 | 12100 ft | 298 kts | 133° |
| 2026-05-07 13:02 | 52.38400 | 4.08305 | 11747 ft | 296 kts | 132° |
| 2026-05-07 13:03 | 52.37027 | 4.10816 | 11400 ft | 294 kts | 133° |
| 2026-05-07 13:03 | 52.35667 | 4.13304 | 11051 ft | 293 kts | 133° |
| 2026-05-07 13:03 | 52.34316 | 4.15781 | 10696 ft | 290 kts | 133° |
| 2026-05-07 13:03 | 52.32991 | 4.18231 | 10091 ft | 287 kts | 132° |
| 2026-05-07 13:04 | 52.31676 | 4.20660 | 9418 ft | 284 kts | 132° |
| 2026-05-07 13:04 | 52.30379 | 4.23068 | 8750 ft | 280 kts | 133° |
| 2026-05-07 13:04 | 52.29103 | 4.25439 | 8106 ft | 276 kts | 132° |
| 2026-05-07 13:04 | 52.27834 | 4.27768 | 7459 ft | 274 kts | 133° |
| 2026-05-07 13:05 | 52.26569 | 4.30074 | 6977 ft | 270 kts | 133° |
| 2026-05-07 13:05 | 52.25319 | 4.32341 | 6472 ft | 267 kts | 132° |
| 2026-05-07 13:05 | 52.24071 | 4.34582 | 5904 ft | 266 kts | 133° |
| 2026-05-07 13:05 | 52.22826 | 4.36799 | 5345 ft | 264 kts | 133° |
| 2026-05-07 13:06 | 52.21579 | 4.38999 | 4763 ft | 264 kts | 133° |
| 2026-05-07 13:06 | 52.20328 | 4.41190 | 4365 ft | 261 kts | 131° |
| 2026-05-07 13:06 | 52.19428 | 4.43630 | 4186 ft | 247 kts | 108° |
| 2026-05-07 13:06 | 52.19168 | 4.46367 | 3813 ft | 240 kts | 87° |
| 2026-05-07 13:07 | 52.19468 | 4.48941 | 3534 ft | 224 kts | 69° |
| 2026-05-07 13:07 | 52.20176 | 4.51126 | 3255 ft | 213 kts | 57° |
| 2026-05-07 13:07 | 52.20951 | 4.53121 | 2972 ft | 203 kts | 57° |
| 2026-05-07 13:07 | 52.21689 | 4.55024 | 2689 ft | 194 kts | 57° |
| 2026-05-07 13:08 | 52.22397 | 4.56849 | 2460 ft | 188 kts | 57° |
| 2026-05-07 13:08 | 52.23094 | 4.58651 | 2170 ft | 186 kts | 57° |
| 2026-05-07 13:08 | 52.23773 | 4.60407 | 1913 ft | 183 kts | 57° |
| 2026-05-07 13:08 | 52.24446 | 4.62146 | 1671 ft | 179 kts | 56° |
| 2026-05-07 13:09 | 52.25112 | 4.63871 | 1424 ft | 174 kts | 56° |
| 2026-05-07 13:09 | 52.25729 | 4.65471 | 1209 ft | 157 kts | 55° |
| 2026-05-07 13:09 | 52.26279 | 4.66899 | 993 ft | 141 kts | 54° |
| 2026-05-07 13:09 | 52.26778 | 4.68192 | 809 ft | 132 kts | 54° |
| 2026-05-07 13:10 | 52.27269 | 4.69464 | 641 ft | 132 kts | 55° |
| 2026-05-07 13:10 | 52.27759 | 4.70733 | 467 ft | 130 kts | 55° |
| 2026-05-07 13:10 | 52.28241 | 4.71984 | 293 ft | 130 kts | 56° |
| 2026-05-07 13:10 | 52.28720 | 4.73230 | 116 ft | 129 kts | 55° |
| 2026-05-07 13:11 | 52.29065 | 4.74135 | 11 ft | 127 kts | 55° |
| 2026-05-07 13:11 | 52.29552 | 4.75392 | -2 ft | 72 kts | 58° |
| 2026-05-07 13:11 | 52.29751 | 4.75908 | -3 ft | 45 kts | 58° |
| 2026-05-07 13:11 | 52.29909 | 4.76308 | -4 ft | 39 kts | 57° |
| 2026-05-07 13:12 | 52.30007 | 4.76511 | -2 ft | 28 kts | 38° |
| 2026-05-07 13:12 | 52.30149 | 4.76646 | -1 ft | 17 kts | 27° |
| 2026-05-07 13:12 | 52.30284 | 4.76761 | -1 ft | 17 kts | 35° |
| 2026-05-07 13:12 | 52.30330 | 4.76869 | -1 ft | 18 kts | 58° |
| 2026-05-07 13:13 | 52.30390 | 4.77024 | -1 ft | 15 kts | 57° |
| 2026-05-07 13:13 | 52.30453 | 4.77188 | -1 ft | 20 kts | 58° |
| 2026-05-07 13:13 | 52.30529 | 4.77386 | -1 ft | 22 kts | 58° |
| 2026-05-07 13:13 | 52.30617 | 4.77571 | -1 ft | 17 kts | 26° |
| 2026-05-07 13:14 | 52.30741 | 4.77596 | -1 ft | 19 kts | 3° |
| 2026-05-07 13:14 | 52.30881 | 4.77609 | -1 ft | 21 kts | 3° |
| 2026-05-07 13:14 | 52.31033 | 4.77623 | -1 ft | 22 kts | 3° |
| 2026-05-07 13:14 | 52.31192 | 4.77637 | -1 ft | 24 kts | 3° |
| 2026-05-07 13:15 | 52.31358 | 4.77653 | -1 ft | 23 kts | 3° |
| 2026-05-07 13:15 | 52.31486 | 4.77600 | -1 ft | 20 kts | 320° |
| 2026-05-07 13:15 | 52.31573 | 4.77409 | -1 ft | 22 kts | 285° |
| 2026-05-07 13:15 | 52.31570 | 4.77146 | -1 ft | 24 kts | 266° |
| 2026-05-07 13:16 | 52.31562 | 4.76859 | -1 ft | 26 kts | 267° |
| 2026-05-07 13:16 | 52.31551 | 4.76551 | -1 ft | 28 kts | 266° |
| 2026-05-07 13:16 | 52.31538 | 4.76224 | -1 ft | 30 kts | 267° |
| 2026-05-07 13:16 | 52.31527 | 4.75900 | -1 ft | 25 kts | 267° |
| 2026-05-07 13:17 | 52.31518 | 4.75629 | -1 ft | 24 kts | 267° |
| 2026-05-07 13:17 | 52.31505 | 4.75468 | -1 ft | 9 kts | 237° |
| 2026-05-07 13:17 | 52.31450 | 4.75440 | -1 ft | 8 kts | 178° |
| 2026-05-07 13:17 | 52.31395 | 4.75444 | -1 ft | 8 kts | 177° |
| 2026-05-07 13:18 | 52.31344 | 4.75449 | -1 ft | 7 kts | 177° |
| 2026-05-07 13:18 | 52.31299 | 4.75452 | -1 ft | 6 kts | 177° |
| 2026-05-07 13:18 | 52.31246 | 4.75457 | -1 ft | 8 kts | 176° |
| 2026-05-07 13:18 | 52.31193 | 4.75463 | -1 ft | 8 kts | 176° |
| 2026-05-07 13:19 | 52.31143 | 4.75458 | -1 ft | 7 kts | 202° |
| 2026-05-07 13:19 | 52.31114 | 4.75407 | -1 ft | 6 kts | 237° |
| 2026-05-07 13:19 | 52.31093 | 4.75354 | -1 ft | 5 kts | 236° |
| 2026-05-07 13:19 | 52.31062 | 4.75353 | -1 ft | 5 kts | 154° |
| 2026-05-07 13:20 | 52.31029 | 4.75385 | -1 ft | 6 kts | 148° |
| 2026-05-07 13:20 | 52.31008 | 4.75406 | -1 ft | 3 kts | 148° |
| 2026-05-07 13:20 | 52.31004 | 4.75411 | -1 ft | 0 kts | 148° |
| 2026-05-07 13:22 | 52.31004 | 4.75410 | -1 ft | 0 kts | 148° |